createdAt,value
2019-04-05T00:00:18.008Z,84.87
2019-04-05T00:02:47.455Z,88.15
2019-04-05T00:05:17.087Z,84.47
2019-04-05T00:07:46.509Z,94.47
2019-04-05T00:10:16.012Z,92.88
2019-04-05T00:12:45.365Z,91.17
2019-04-05T00:15:16.133Z,92.70
2019-04-05T00:17:45.805Z,89.77
2019-04-05T00:20:15.805Z,94.60
2019-04-05T00:22:45.233Z,93.40
2019-04-05T00:25:14.666Z,93.07
2019-04-05T00:27:44.099Z,90.03
2019-04-05T00:30:14.313Z,95.77
2019-04-05T00:32:43.663Z,96.12
2019-04-05T00:35:13.147Z,98.45
2019-04-05T00:37:42.540Z,96.53
2019-04-05T00:40:12.420Z,96.95
2019-04-05T00:42:41.873Z,98.60
2019-04-05T00:45:11.365Z,99.75
2019-04-05T00:47:42.287Z,98.95
2019-04-05T00:50:12.096Z,91.92
2019-04-05T00:52:41.472Z,98.65
2019-04-05T00:55:12.435Z,98.56
2019-04-05T00:57:41.777Z,94.87
2019-04-05T01:00:11.669Z,94.70
2019-04-05T01:02:41.175Z,95.28
2019-04-05T01:05:10.919Z,94.97
2019-04-05T01:07:40.427Z,92.90
2019-04-05T01:10:10.215Z,99.05
2019-04-05T01:12:40.528Z,93.72
2019-04-05T01:15:11.940Z,100.12
2019-04-05T01:17:41.822Z,100.40
2019-04-05T01:20:11.450Z,97.22
2019-04-05T01:22:42.786Z,96.75
2019-04-05T01:25:13.827Z,106.60
2019-04-05T01:27:43.453Z,99.30
2019-04-05T01:30:14.503Z,99.97
2019-04-05T01:32:44.076Z,98.47
2019-04-05T01:35:13.494Z,97.00
2019-04-05T01:37:45.159Z,102.78
2019-04-05T01:40:14.751Z,99.35
2019-04-05T01:42:45.623Z,100.27
2019-04-05T01:45:15.618Z,96.90
2019-04-05T01:47:45.059Z,103.80
2019-04-05T01:50:15.172Z,97.78
2019-04-05T01:52:45.071Z,100.10
2019-04-05T01:55:14.579Z,102.67
2019-04-05T01:57:43.940Z,104.07
2019-04-05T02:00:14.496Z,106.93
2019-04-05T02:02:43.996Z,108.15
2019-04-05T02:05:14.276Z,103.97
2019-04-05T02:07:43.708Z,101.92
2019-04-05T02:10:13.616Z,103.97
2019-04-05T02:12:43.086Z,106.17
2019-04-05T02:15:18.055Z,106.43
2019-04-05T02:17:47.492Z,106.85
2019-04-05T02:20:17.063Z,104.92
2019-04-05T02:22:46.507Z,107.80
2019-04-05T02:25:15.989Z,105.03
2019-04-05T02:27:45.507Z,108.80
2019-04-05T02:30:16.661Z,100.70
2019-04-05T02:32:46.183Z,105.73
2019-04-05T02:35:16.153Z,99.50
2019-04-05T02:37:45.589Z,99.17
2019-04-05T02:40:16.661Z,112.50
2019-04-05T02:42:49.116Z,104.73
2019-04-05T02:45:21.445Z,102.58
2019-04-05T02:47:53.893Z,104.85
2019-04-05T02:50:26.332Z,105.90
2019-04-05T02:52:58.845Z,107.12
2019-04-05T02:55:29.427Z,100.07
2019-04-05T02:58:01.403Z,105.30
2019-04-05T03:00:32.262Z,100.90
2019-04-05T03:03:03.542Z,118.13
2019-04-05T03:05:33.123Z,103.23
2019-04-05T03:08:02.630Z,106.83
2019-04-05T03:10:56.177Z,102.75
2019-04-05T03:13:29.191Z,108.15
2019-04-05T03:16:02.293Z,100.45
2019-04-05T03:18:33.456Z,101.38
2019-04-05T03:21:06.235Z,103.10
2019-04-05T03:23:39.651Z,101.65
2019-04-05T03:26:13.139Z,102.95
2019-04-05T03:28:45.587Z,112.28
2019-04-05T03:31:15.099Z,98.82
2019-04-05T03:33:45.257Z,107.12
2019-04-05T03:36:14.755Z,105.15
2019-04-05T03:38:44.445Z,108.17
2019-04-05T03:41:14.652Z,105.25
2019-04-05T03:43:45.577Z,102.50
2019-04-05T03:46:16.401Z,104.67
2019-04-05T03:48:46.590Z,109.97
2019-04-05T03:51:16.310Z,108.57
2019-04-05T03:53:45.831Z,103.95
2019-04-05T03:56:15.328Z,108.32
2019-04-05T03:58:46.347Z,99.92
2019-04-05T04:01:15.856Z,95.70
2019-04-05T04:03:45.271Z,101.87
2019-04-05T04:06:15.135Z,104.43
2019-04-05T04:08:44.595Z,96.80
2019-04-05T04:11:14.344Z,100.38
2019-04-05T04:13:45.030Z,100.37
2019-04-05T04:16:14.545Z,109.67
2019-04-05T04:18:44.196Z,98.33
2019-04-05T04:21:22.541Z,104.80
2019-04-05T04:23:52.105Z,103.45
2019-04-05T04:26:22.436Z,104.70
2019-04-05T04:28:51.867Z,103.50
2019-04-05T04:31:22.127Z,118.75
2019-04-05T04:33:51.699Z,104.25
2019-04-05T04:36:22.001Z,104.10
2019-04-05T04:38:51.936Z,101.27
2019-04-05T04:41:22.024Z,102.65
2019-04-05T04:43:51.700Z,109.80
2019-04-05T04:46:21.489Z,102.62
2019-04-05T04:48:50.930Z,107.22
2019-04-05T04:51:20.724Z,107.85
2019-04-05T04:53:50.317Z,106.90
2019-04-05T04:56:20.034Z,112.93
2019-04-05T04:58:49.536Z,111.30
2019-04-05T05:01:20.661Z,116.20
2019-04-05T05:03:51.685Z,111.03
2019-04-05T05:06:21.207Z,99.62
2019-04-05T05:08:50.614Z,111.60
2019-04-05T05:11:20.129Z,109.80
2019-04-05T05:13:49.666Z,107.05
2019-04-05T05:16:19.453Z,116.87
2019-04-05T05:18:49.079Z,103.30
2019-04-05T05:21:18.520Z,109.05
2019-04-05T05:23:47.977Z,105.65
2019-04-05T05:26:17.640Z,105.67
2019-04-05T05:28:47.243Z,106.65
2019-04-05T05:31:16.601Z,106.78
2019-04-05T05:33:46.073Z,104.95
2019-04-05T05:36:15.673Z,111.67
2019-04-05T05:38:45.256Z,103.92
2019-04-05T05:41:15.745Z,101.75
2019-04-05T05:43:45.250Z,100.00
2019-04-05T05:46:14.733Z,106.03
2019-04-05T05:48:45.137Z,104.23
2019-04-05T05:51:15.764Z,104.30
2019-04-05T05:53:45.352Z,101.97
2019-04-05T05:56:14.725Z,102.87
2019-04-05T05:58:44.144Z,109.32
2019-04-05T06:01:13.518Z,102.33
2019-04-05T06:03:42.854Z,97.85
2019-04-05T06:06:12.200Z,100.03
2019-04-05T06:08:41.637Z,102.47
2019-04-05T06:11:10.986Z,94.60
2019-04-05T06:13:40.322Z,105.78
2019-04-05T06:16:09.764Z,95.92
2019-04-05T06:18:40.762Z,100.82
2019-04-05T06:21:10.196Z,101.58
2019-04-05T06:23:39.630Z,98.52
2019-04-05T06:26:09.064Z,91.55
2019-04-05T06:28:38.579Z,90.90
2019-04-05T06:31:08.027Z,94.15
2019-04-05T06:33:37.443Z,93.85
2019-04-05T06:36:07.352Z,89.90
2019-04-05T06:38:36.870Z,90.45
2019-04-05T06:41:06.285Z,88.80
2019-04-05T06:43:35.720Z,98.35
2019-04-05T06:46:05.867Z,90.72
2019-04-05T06:48:35.316Z,85.20
2019-04-05T06:51:05.651Z,83.52
2019-04-05T06:53:35.080Z,87.17
2019-04-05T06:56:05.487Z,83.45
2019-04-05T06:58:35.221Z,84.60
2019-04-05T07:01:05.384Z,82.10
2019-04-05T07:03:34.819Z,86.37
2019-04-05T07:06:04.314Z,76.55
2019-04-05T07:08:33.737Z,75.25
2019-04-05T07:11:03.123Z,78.25
2019-04-05T07:13:32.624Z,76.33
2019-04-05T07:16:02.157Z,74.03
2019-04-05T07:18:35.888Z,79.22
2019-04-05T07:21:02.705Z,65.28
2019-04-05T07:23:32.156Z,70.70
2019-04-05T07:26:02.216Z,68.10
2019-04-05T07:28:31.676Z,70.95
2019-04-05T07:31:01.026Z,69.12
2019-04-05T07:33:30.384Z,65.03
2019-04-05T07:36:03.316Z,59.98
2019-04-05T07:38:31.884Z,60.93
2019-04-05T07:41:01.297Z,61.02
2019-04-05T07:43:31.764Z,60.90
2019-04-05T07:46:01.136Z,62.50
2019-04-05T07:48:30.544Z,54.00
2019-04-05T07:50:59.993Z,52.43
2019-04-05T07:53:29.392Z,52.10
2019-04-05T07:55:59.722Z,52.60
2019-04-05T07:58:29.072Z,52.27
2019-04-05T08:00:58.444Z,50.60
2019-04-05T08:03:27.872Z,49.70
2019-04-05T08:05:57.230Z,48.08
2019-04-05T08:08:39.010Z,50.40
2019-04-05T08:11:08.869Z,47.60
2019-04-05T08:13:40.579Z,44.38
2019-04-05T08:16:10.064Z,46.20
2019-04-05T08:18:39.467Z,45.45
2019-04-05T08:21:08.822Z,41.25
2019-04-05T08:23:38.201Z,47.03
2019-04-05T08:26:07.618Z,43.90
2019-04-05T08:28:37.048Z,41.50
2019-04-05T08:31:10.447Z,39.60
2019-04-05T08:33:37.509Z,42.40
2019-04-05T08:36:06.958Z,38.85
2019-04-05T08:38:39.779Z,43.07
2019-04-05T08:41:08.643Z,44.15
2019-04-05T08:43:38.008Z,37.58
2019-04-05T08:46:07.435Z,32.75
2019-04-05T08:48:36.862Z,30.10
2019-04-05T08:51:06.305Z,29.77
2019-04-05T08:53:35.752Z,25.40
2019-04-05T08:56:07.357Z,25.15
2019-04-05T08:58:36.760Z,23.30
2019-04-05T09:01:06.171Z,20.55
2019-04-05T09:03:35.673Z,18.75
2019-04-05T09:06:05.211Z,19.95
2019-04-05T09:08:36.063Z,20.88
2019-04-05T09:13:34.577Z,23.98
2019-04-05T09:16:04.005Z,16.73
2019-04-05T09:18:33.453Z,18.92
2019-04-05T09:21:02.807Z,22.60
2019-04-05T09:23:32.332Z,22.35
2019-04-05T09:26:01.760Z,21.52
2019-04-05T09:28:31.195Z,16.20
2019-04-05T09:31:00.713Z,22.48
2019-04-05T09:33:30.144Z,13.32
2019-04-05T09:35:59.485Z,11.33
2019-04-05T09:38:30.405Z,15.72
2019-04-05T09:40:59.762Z,14.58
2019-04-05T09:43:29.195Z,11.83
2019-04-05T09:45:58.629Z,13.90
2019-04-05T09:48:27.993Z,13.30
2019-04-05T09:50:57.033Z,13.90
2019-04-05T09:53:27.919Z,15.80
2019-04-05T09:55:57.373Z,13.20
2019-04-05T09:58:26.820Z,13.08
2019-04-05T10:00:56.253Z,11.57
2019-04-05T10:03:25.901Z,14.78
2019-04-05T10:05:55.345Z,11.43
2019-04-05T10:08:24.715Z,12.93
2019-04-05T10:10:54.173Z,11.68
2019-04-05T10:13:23.675Z,12.45
2019-04-05T10:15:53.021Z,11.85
2019-04-05T10:18:24.365Z,15.65
2019-04-05T10:20:53.440Z,16.52
2019-04-05T10:23:22.821Z,17.05
2019-04-05T10:25:52.182Z,14.45
2019-04-05T10:28:21.550Z,14.25
2019-04-05T10:30:52.029Z,13.18
2019-04-05T10:33:21.691Z,19.97
2019-04-05T10:35:51.125Z,15.43
2019-04-05T10:38:20.499Z,10.03
2019-04-05T10:40:49.860Z,14.43
2019-04-05T10:43:19.242Z,12.30
2019-04-05T10:45:48.620Z,11.93
2019-04-05T10:48:18.063Z,10.88
2019-04-05T10:50:47.612Z,12.15
2019-04-05T10:53:18.661Z,11.80
2019-04-05T10:55:48.170Z,13.53
2019-04-05T10:58:17.704Z,9.60
2019-04-05T11:00:47.161Z,12.23
2019-04-05T11:03:16.958Z,13.43
2019-04-05T11:05:49.100Z,13.35
2019-04-05T11:08:17.366Z,13.70
2019-04-05T11:10:47.918Z,11.22
2019-04-05T11:13:17.275Z,10.90
2019-04-05T11:15:46.622Z,9.73
2019-04-05T11:18:16.001Z,11.27
2019-04-05T11:20:48.940Z,9.35
2019-04-05T11:23:16.424Z,12.57
2019-04-05T11:25:45.794Z,8.63
2019-04-05T11:28:15.235Z,10.58
2019-04-05T11:30:46.498Z,16.12
2019-04-05T11:33:19.252Z,12.30
2019-04-05T11:35:47.299Z,10.25
2019-04-05T11:38:17.817Z,13.05
2019-04-05T11:40:47.884Z,10.55
2019-04-05T11:43:19.153Z,12.10
2019-04-05T11:45:50.806Z,12.00
2019-04-05T11:48:19.894Z,13.30
2019-04-05T11:50:49.238Z,11.18
2019-04-05T11:53:21.784Z,14.30
2019-04-05T11:55:49.741Z,14.10
2019-04-05T11:58:19.177Z,13.07
2019-04-05T12:00:50.390Z,11.57
2019-04-05T12:03:21.416Z,16.77
2019-04-05T12:05:50.785Z,15.05
2019-04-05T12:08:20.149Z,15.90
2019-04-05T12:10:49.492Z,17.92
2019-04-05T12:13:19.936Z,16.05
2019-04-05T12:15:49.298Z,15.88
2019-04-05T12:18:19.723Z,18.98
2019-04-05T12:20:59.084Z,20.85
2019-04-05T12:23:20.469Z,20.62
2019-04-05T12:25:49.884Z,19.25
2019-04-05T12:28:19.271Z,17.20
2019-04-05T12:30:49.733Z,16.70
2019-04-05T12:33:19.648Z,18.40
2019-04-05T12:35:53.013Z,18.75
2019-04-05T12:38:34.014Z,18.37
2019-04-05T12:41:04.552Z,26.65
2019-04-05T12:43:34.076Z,17.73
2019-04-05T12:46:07.079Z,17.42
2019-04-05T12:48:36.536Z,17.40
2019-04-05T12:51:06.017Z,18.23
2019-04-05T12:53:35.377Z,18.23
2019-04-05T12:56:06.060Z,17.70
2019-04-05T12:58:35.484Z,18.75
2019-04-05T13:01:08.330Z,18.32
2019-04-05T13:03:36.933Z,17.30
2019-04-05T13:06:06.435Z,17.42
2019-04-05T13:08:35.793Z,20.57
2019-04-05T13:11:06.220Z,23.70
2019-04-05T13:13:35.644Z,20.00
2019-04-05T13:16:09.823Z,20.05
2019-04-05T13:18:37.192Z,18.12
2019-04-05T13:21:14.569Z,18.80
2019-04-05T13:23:37.808Z,20.00
2019-04-05T13:26:07.202Z,19.67
2019-04-05T13:28:36.648Z,22.45
2019-04-05T13:31:06.232Z,20.68
2019-04-05T13:33:35.676Z,28.90
2019-04-05T13:36:08.196Z,21.97
2019-04-05T13:38:36.336Z,19.93
2019-04-05T13:41:05.822Z,19.30
2019-04-05T13:43:52.838Z,18.90
2019-04-05T13:46:25.974Z,22.33
2019-04-05T13:48:54.628Z,17.20
2019-04-05T13:51:28.567Z,21.93
2019-04-05T13:53:55.061Z,18.97
2019-04-05T13:56:24.461Z,18.45
2019-04-05T13:58:53.837Z,17.67
2019-04-05T14:01:23.250Z,18.55
2019-04-05T14:03:52.628Z,22.10
2019-04-05T14:06:21.989Z,18.82
2019-04-05T14:08:51.381Z,15.48
2019-04-05T14:11:20.820Z,17.57
2019-04-05T14:13:50.212Z,20.37
2019-04-05T14:16:19.587Z,16.50
2019-04-05T14:18:50.623Z,21.15
2019-04-05T14:21:22.292Z,15.38
2019-04-05T14:23:53.285Z,16.93
2019-04-05T14:26:22.495Z,17.27
2019-04-05T14:28:53.113Z,18.60
2019-04-05T14:31:22.585Z,18.63
2019-04-05T14:33:54.214Z,14.95
2019-04-05T14:36:23.605Z,16.23
2019-04-05T14:38:53.127Z,15.90
2019-04-05T14:41:22.475Z,14.10
2019-04-05T14:43:52.940Z,11.75
2019-04-05T14:46:22.687Z,15.40
2019-04-05T14:48:52.071Z,16.17
2019-04-05T14:51:21.420Z,20.02
2019-04-05T14:53:50.771Z,17.15
2019-04-05T14:56:21.220Z,20.35
2019-04-05T14:58:50.576Z,21.20
2019-04-05T15:01:19.949Z,17.35
2019-04-05T15:03:49.537Z,18.70
2019-04-05T15:06:21.485Z,16.02
2019-04-05T15:08:52.295Z,14.83
2019-04-05T15:11:21.923Z,16.50
2019-04-05T15:13:51.395Z,15.40
2019-04-05T15:16:23.258Z,15.38
2019-04-05T15:18:53.003Z,16.05
2019-04-05T15:21:22.443Z,15.73
2019-04-05T15:23:51.831Z,14.15
2019-04-05T15:26:21.506Z,13.18
2019-04-05T15:28:54.739Z,14.35
2019-04-05T15:31:25.868Z,15.57
2019-04-05T15:33:53.125Z,15.20
2019-04-05T15:36:22.480Z,14.53
2019-04-05T15:38:51.920Z,14.35
2019-04-05T15:41:22.006Z,15.80
2019-04-05T15:43:53.163Z,13.75
2019-04-05T15:46:22.606Z,13.05
2019-04-05T15:48:52.455Z,17.12
2019-04-05T15:51:22.517Z,11.95
2019-04-05T15:53:53.101Z,13.03
2019-04-05T15:56:22.453Z,12.50
2019-04-05T15:58:52.521Z,11.75
2019-04-05T16:01:22.021Z,8.65
2019-04-05T16:03:51.375Z,12.88
2019-04-05T16:06:20.999Z,10.85
2019-04-05T16:08:51.521Z,10.15
2019-04-05T16:11:20.876Z,10.20
2019-04-05T16:13:50.262Z,11.00
2019-04-05T16:16:19.624Z,12.73
2019-04-05T16:18:49.046Z,10.55
2019-04-05T16:21:18.387Z,12.50
2019-04-05T16:23:47.775Z,9.93
2019-04-05T16:26:17.186Z,9.38
2019-04-05T16:28:46.561Z,11.45
2019-04-05T16:31:16.182Z,11.45
2019-04-05T16:33:45.584Z,10.03
2019-04-05T16:36:15.016Z,9.53
2019-04-05T16:38:44.367Z,8.85
2019-04-05T16:41:13.722Z,8.53
2019-04-05T16:43:44.812Z,7.85
2019-04-05T16:46:14.328Z,10.40
2019-04-05T16:48:43.812Z,9.30
2019-04-05T16:51:13.261Z,10.32
2019-04-05T16:54:01.940Z,11.03
2019-04-05T16:56:31.525Z,10.80
2019-04-05T16:59:01.024Z,13.32
2019-04-05T17:01:30.537Z,13.28
2019-04-05T17:03:59.891Z,14.90
2019-04-05T17:06:29.315Z,10.80
2019-04-05T17:08:58.695Z,10.32
2019-04-05T17:11:28.096Z,9.70
2019-04-05T17:13:59.577Z,8.43
2019-04-05T17:16:28.670Z,12.07
2019-04-05T17:18:58.113Z,11.23
2019-04-05T17:21:27.470Z,12.55
2019-04-05T17:23:57.050Z,8.88
2019-04-05T17:26:26.574Z,10.10
2019-04-05T17:28:56.092Z,11.88
2019-04-05T17:31:25.524Z,11.73
2019-04-05T17:33:55.017Z,10.68
2019-04-05T17:36:24.642Z,10.88
2019-04-05T17:38:54.193Z,9.45
2019-04-05T17:41:23.712Z,9.95
2019-04-05T17:43:53.144Z,14.90
2019-04-05T17:46:23.597Z,11.53
2019-04-05T17:48:53.067Z,11.33
2019-04-05T17:51:22.522Z,14.17
2019-04-05T17:53:52.101Z,13.20
2019-04-05T17:56:21.607Z,12.40
2019-04-05T17:58:51.340Z,12.05
2019-04-05T18:01:20.802Z,13.00
2019-04-05T18:03:50.139Z,14.68
2019-04-05T18:06:19.518Z,12.67
2019-04-05T18:08:49.004Z,11.83
2019-04-05T18:11:19.076Z,12.78
2019-04-05T18:13:48.762Z,12.15
2019-04-05T18:16:18.122Z,16.20
2019-04-05T18:18:47.581Z,16.62
2019-04-05T18:21:19.654Z,18.00
2019-04-05T18:23:49.122Z,15.40
2019-04-05T18:26:18.741Z,17.77
2019-04-05T18:28:49.256Z,16.57
2019-04-05T18:31:18.699Z,19.52
2019-04-05T18:33:49.755Z,14.73
2019-04-05T18:36:19.187Z,17.33
2019-04-05T18:38:48.568Z,17.90
2019-04-05T18:41:18.006Z,18.27
2019-04-05T18:43:48.315Z,16.87
2019-04-05T18:46:17.702Z,19.40
2019-04-05T18:48:47.073Z,18.35
2019-04-05T18:51:16.427Z,17.52
2019-04-05T18:53:45.902Z,17.55
2019-04-05T18:56:15.332Z,18.77
2019-04-05T18:58:44.791Z,20.57
2019-04-05T19:01:14.428Z,19.62
2019-04-05T19:03:44.075Z,19.67
2019-04-05T19:06:13.581Z,22.10
2019-04-05T19:08:44.078Z,20.37
2019-04-05T19:11:16.064Z,19.80
2019-04-05T19:13:45.442Z,20.57
2019-04-05T19:16:15.142Z,21.65
2019-04-05T19:18:47.314Z,20.82
2019-04-05T19:21:16.851Z,21.25
2019-04-05T19:23:51.191Z,20.17
2019-04-05T19:26:17.369Z,20.73
2019-04-05T19:28:46.737Z,18.87
2019-04-05T19:48:54.227Z,23.15
2019-04-05T19:51:24.729Z,25.02
2019-04-05T19:54:01.107Z,28.85
2019-04-05T19:56:26.381Z,26.17
2019-04-05T19:58:55.833Z,27.30
2019-04-05T20:01:25.321Z,30.92
2019-04-05T20:03:54.850Z,28.57
2019-04-05T20:06:24.316Z,28.92
2019-04-05T20:08:53.806Z,30.40
2019-04-05T20:11:23.386Z,27.60
2019-04-05T20:13:56.762Z,32.33
2019-04-05T20:16:28.519Z,27.22
2019-04-05T20:18:57.464Z,29.07
2019-04-05T20:21:26.985Z,29.60
2019-04-05T20:23:56.585Z,28.40
2019-04-05T20:26:26.077Z,28.17
2019-04-05T20:28:55.929Z,29.70
2019-04-05T20:31:25.370Z,32.85
2019-04-05T20:33:54.882Z,31.23
2019-04-05T20:36:24.320Z,30.37
2019-04-05T20:38:53.714Z,32.50
2019-04-05T20:41:23.389Z,31.70
2019-04-05T20:43:56.310Z,33.80
2019-04-05T20:46:25.811Z,35.85
2019-04-05T20:48:55.330Z,33.67
2019-04-05T20:51:24.802Z,34.70
2019-04-05T20:53:54.263Z,34.53
2019-04-05T20:56:23.784Z,33.75
2019-04-05T20:58:53.173Z,37.10
2019-04-05T21:01:22.552Z,38.10
2019-04-05T21:03:54.570Z,36.93
2019-04-05T21:06:23.999Z,36.80
2019-04-05T21:08:53.424Z,37.60
2019-04-05T21:11:22.856Z,38.37
2019-04-05T21:13:52.366Z,40.38
2019-04-05T21:16:21.823Z,43.20
2019-04-05T21:18:51.269Z,40.55
2019-04-05T21:21:20.694Z,39.98
2019-04-05T21:23:50.040Z,40.67
2019-04-05T21:26:19.596Z,39.90
2019-04-05T21:28:48.956Z,41.48
2019-04-05T21:31:18.443Z,38.40
2019-04-05T21:33:47.917Z,40.12
2019-04-05T21:36:17.489Z,40.10
2019-04-05T21:38:47.130Z,41.90
2019-04-05T21:41:16.712Z,44.97
2019-04-05T21:43:46.245Z,43.48
2019-04-05T21:46:15.877Z,41.90
2019-04-05T21:48:45.437Z,46.20
2019-04-05T21:51:14.826Z,41.35
2019-04-05T21:53:44.210Z,44.83
2019-04-05T21:56:13.722Z,45.75
2019-04-05T21:58:43.260Z,48.38
2019-04-05T22:01:12.819Z,47.50
2019-04-05T22:03:42.607Z,44.93
2019-04-05T22:06:12.209Z,59.65
2019-04-05T22:08:41.816Z,46.42
2019-04-05T22:11:11.355Z,45.95
2019-04-05T22:13:40.823Z,49.45
2019-04-05T22:16:10.546Z,47.68
2019-04-05T22:18:40.167Z,47.95
2019-04-05T22:21:09.632Z,47.58
2019-04-05T22:23:39.481Z,47.95
2019-04-05T22:26:10.006Z,49.13
2019-04-05T22:28:39.592Z,46.53
2019-04-05T22:31:09.053Z,45.43
2019-04-05T22:33:38.572Z,47.08
2019-04-05T22:36:08.119Z,53.98
2019-04-05T22:38:37.649Z,54.05
2019-04-05T22:41:07.200Z,50.05
2019-04-05T22:43:36.805Z,51.75
2019-04-05T22:46:06.408Z,54.90
2019-04-05T22:48:36.763Z,58.58
2019-04-05T22:51:06.221Z,64.22
2019-04-05T22:53:35.685Z,62.58
2019-04-05T22:56:05.709Z,61.85
2019-04-05T22:58:35.240Z,61.68
2019-04-05T23:01:05.783Z,68.33
2019-04-05T23:03:35.235Z,67.12
2019-04-05T23:06:07.016Z,74.87
2019-04-05T23:08:38.086Z,75.35
2019-04-05T23:11:08.938Z,80.30
2019-04-05T23:13:39.741Z,75.87
2019-04-05T23:16:10.585Z,82.75
2019-04-05T23:19:01.129Z,89.40
2019-04-05T23:21:33.283Z,89.05
2019-04-05T23:24:04.629Z,89.33
2019-04-05T23:26:35.559Z,92.42
2019-04-05T23:29:27.365Z,91.85
2019-04-05T23:31:58.535Z,93.80
2019-04-05T23:34:31.543Z,87.92
2019-04-05T23:37:02.429Z,92.70
2019-04-05T23:39:33.556Z,97.27
2019-04-05T23:42:04.058Z,95.97
2019-04-05T23:44:34.762Z,104.35
2019-04-05T23:47:06.533Z,107.87
2019-04-05T23:49:37.680Z,107.65
2019-04-05T23:52:08.433Z,106.43
2019-04-05T23:54:39.565Z,108.63
2019-04-05T23:57:10.403Z,116.43
2019-04-05T23:59:41.725Z,107.97
